createdAt,value
2023-05-23T00:02:13.583Z,27.50
2023-05-23T00:04:40.864Z,33.63
2023-05-23T00:07:07.750Z,35.27
2023-05-23T00:09:34.631Z,29.07
2023-05-23T00:12:01.518Z,31.30
2023-05-23T00:14:31.517Z,31.57
2023-05-23T00:16:59.658Z,32.90
2023-05-23T00:19:26.789Z,38.27
2023-05-23T00:21:56.986Z,37.27
2023-05-23T00:24:24.078Z,46.23
2023-05-23T00:26:51.812Z,47.47
2023-05-23T00:29:19.770Z,33.27
2023-05-23T00:31:47.129Z,31.53
2023-05-23T00:34:14.973Z,36.37
2023-05-23T00:36:43.801Z,36.70
2023-05-23T00:39:19.527Z,33.80
2023-05-23T00:41:51.139Z,40.17
2023-05-23T00:44:20.442Z,42.10
2023-05-23T00:46:49.872Z,38.30
2023-05-23T00:49:20.373Z,54.37
2023-05-23T00:51:49.649Z,47.20
2023-05-23T00:54:27.523Z,53.63
2023-05-23T00:56:54.977Z,55.60
2023-05-23T00:59:22.833Z,50.70
2023-05-23T01:01:51.248Z,55.47
2023-05-23T01:04:20.077Z,54.80
2023-05-23T01:06:49.318Z,60.23
2023-05-23T01:12:07.930Z,61.10
2023-05-23T01:14:53.768Z,59.87
2023-05-23T01:17:42.409Z,53.07
2023-05-23T01:20:12.805Z,62.10
2023-05-23T01:22:45.884Z,59.07
2023-05-23T01:25:31.353Z,58.27
2023-05-23T01:28:00.979Z,62.47
2023-05-23T01:30:30.861Z,61.07
2023-05-23T01:32:58.509Z,50.37
2023-05-23T01:35:29.558Z,65.07
2023-05-23T01:37:56.796Z,57.40
2023-05-23T01:40:24.665Z,58.07
2023-05-23T01:42:52.120Z,58.67
2023-05-23T01:45:19.358Z,55.00
2023-05-23T01:47:47.735Z,54.47
2023-05-23T01:50:14.806Z,55.50
2023-05-23T01:52:42.296Z,57.60
2023-05-23T01:55:10.378Z,57.30
2023-05-23T01:57:38.460Z,48.77
2023-05-23T02:00:06.911Z,33.33
2023-05-23T02:02:40.657Z,28.20
2023-05-23T02:05:08.106Z,21.20
2023-05-23T02:07:34.992Z,20.83
2023-05-23T02:10:02.234Z,16.03
2023-05-23T02:12:29.247Z,16.07
2023-05-23T02:14:56.354Z,12.30
2023-05-23T02:17:24.551Z,14.37
2023-05-23T02:19:51.566Z,14.70
2023-05-23T02:22:18.568Z,13.27
2023-05-23T02:24:45.572Z,19.43
2023-05-23T02:27:13.296Z,24.30
2023-05-23T02:29:40.173Z,19.40
2023-05-23T02:32:07.410Z,23.17
2023-05-23T02:34:34.576Z,31.73
2023-05-23T02:37:01.893Z,35.13
2023-05-23T02:39:28.787Z,45.13
2023-05-23T02:41:55.671Z,37.47
2023-05-23T02:44:22.667Z,44.83
2023-05-23T02:46:49.994Z,43.73
2023-05-23T02:49:18.610Z,55.80
2023-05-23T02:51:45.708Z,46.27
2023-05-23T02:54:12.598Z,49.90
2023-05-23T02:56:39.494Z,46.67
2023-05-23T02:59:06.846Z,52.70
2023-05-23T03:01:34.105Z,41.80
2023-05-23T03:04:01.225Z,39.07
2023-05-23T03:06:28.209Z,45.87
2023-05-23T03:08:55.692Z,32.20
2023-05-23T03:11:22.824Z,34.20
2023-05-23T03:13:49.962Z,40.13
2023-05-23T03:16:17.221Z,32.40
2023-05-23T03:18:44.436Z,33.03
2023-05-23T03:21:11.303Z,27.77
2023-05-23T03:23:38.359Z,24.30
2023-05-23T03:26:06.798Z,21.00
2023-05-23T03:28:33.522Z,28.07
2023-05-23T03:31:00.405Z,21.87
2023-05-23T03:33:27.646Z,25.17
2023-05-23T03:35:54.513Z,28.10
2023-05-23T03:38:21.516Z,30.10
2023-05-23T03:40:48.396Z,22.40
2023-05-23T03:43:15.640Z,24.00
2023-05-23T03:45:43.933Z,25.57
2023-05-23T03:48:16.253Z,23.53
2023-05-23T03:50:43.128Z,32.57
2023-05-23T03:53:11.328Z,23.97
2023-05-23T03:55:39.347Z,26.60
2023-05-23T03:58:06.526Z,27.00
2023-05-23T04:00:33.413Z,25.40
2023-05-23T04:03:05.568Z,27.10
2023-05-23T04:05:32.595Z,25.67
2023-05-23T04:08:01.763Z,36.03
2023-05-23T04:10:29.589Z,26.50
2023-05-23T04:12:57.009Z,30.00
2023-05-23T04:15:24.902Z,27.17
2023-05-23T04:18:03.928Z,25.67
2023-05-23T04:20:31.034Z,28.23
2023-05-23T04:22:57.929Z,23.37
2023-05-23T04:25:26.603Z,26.67
2023-05-23T04:28:06.933Z,28.77
2023-05-23T04:30:33.805Z,23.33
2023-05-23T04:33:00.841Z,26.40
2023-05-23T04:35:29.137Z,32.03
2023-05-23T04:37:56.893Z,21.03
2023-05-23T04:40:26.140Z,20.80
2023-05-23T04:43:10.299Z,23.63
2023-05-23T04:45:45.828Z,18.87
2023-05-23T04:48:27.233Z,24.27
2023-05-23T04:50:56.276Z,24.87
2023-05-23T04:53:23.509Z,17.20
2023-05-23T04:55:51.005Z,23.20
2023-05-23T04:58:19.199Z,26.60
2023-05-23T05:00:46.826Z,25.17
2023-05-23T05:03:16.446Z,24.37
2023-05-23T05:05:45.489Z,21.03
2023-05-23T05:08:14.415Z,26.27
2023-05-23T05:10:42.225Z,26.73
2023-05-23T05:13:09.858Z,28.00
2023-05-23T05:15:46.582Z,27.80
2023-05-23T05:18:14.080Z,24.30
2023-05-23T05:20:41.817Z,20.57
2023-05-23T05:23:09.986Z,20.73
2023-05-23T05:25:38.297Z,24.63
2023-05-23T05:28:06.080Z,24.20
2023-05-23T05:30:37.544Z,21.27
2023-05-23T05:33:06.656Z,30.43
2023-05-23T05:35:34.356Z,24.63
2023-05-23T05:38:05.931Z,24.77
2023-05-23T05:40:33.040Z,22.07
2023-05-23T05:43:00.532Z,23.10
2023-05-23T05:45:27.711Z,26.33
2023-05-23T05:47:54.942Z,32.53
2023-05-23T05:50:23.810Z,29.60
2023-05-23T05:52:51.294Z,30.37
2023-05-23T05:55:18.172Z,26.50
2023-05-23T05:57:48.781Z,20.53
2023-05-23T06:00:16.130Z,23.50
2023-05-23T06:02:51.767Z,20.23
2023-05-23T06:05:40.625Z,21.80
2023-05-23T06:08:07.869Z,22.17
2023-05-23T06:10:34.756Z,23.30
2023-05-23T06:13:02.234Z,17.93
2023-05-23T06:15:30.675Z,17.40
2023-05-23T06:17:57.623Z,13.70
2023-05-23T06:20:25.042Z,16.23
2023-05-23T06:22:53.244Z,14.03
2023-05-23T06:25:20.358Z,18.17
2023-05-23T06:27:47.969Z,18.23
2023-05-23T06:30:14.967Z,16.53
2023-05-23T06:32:42.041Z,20.10
2023-05-23T06:35:09.466Z,17.63
2023-05-23T06:37:36.332Z,18.17
2023-05-23T06:40:03.459Z,21.43
2023-05-23T06:42:30.708Z,17.43
2023-05-23T06:45:10.551Z,21.63
2023-05-23T06:47:38.047Z,26.03
2023-05-23T06:50:05.275Z,17.50
2023-05-23T06:52:33.103Z,15.10
2023-05-23T06:55:00.120Z,20.13
2023-05-23T06:57:27.472Z,19.80
2023-05-23T06:59:54.482Z,19.23
2023-05-23T07:02:21.394Z,17.70
2023-05-23T07:04:48.364Z,19.70
2023-05-23T07:07:21.486Z,21.33
2023-05-23T07:09:49.445Z,22.10
2023-05-23T07:12:19.206Z,21.97
2023-05-23T07:14:47.898Z,23.30
2023-05-23T07:17:16.515Z,15.57
2023-05-23T07:19:44.420Z,23.93
2023-05-23T07:22:12.018Z,20.17
2023-05-23T07:24:42.034Z,28.60
2023-05-23T07:27:09.988Z,25.47
2023-05-23T07:29:38.422Z,30.00
2023-05-23T07:32:07.840Z,26.20
2023-05-23T07:34:34.710Z,33.53
2023-05-23T07:37:02.315Z,25.60
2023-05-23T07:39:36.048Z,25.53
2023-05-23T07:42:03.527Z,25.73
2023-05-23T07:44:30.522Z,29.57
2023-05-23T07:46:57.534Z,22.90
2023-05-23T07:49:25.133Z,23.70
2023-05-23T07:51:53.082Z,28.87
2023-05-23T07:54:19.965Z,26.93
2023-05-23T07:56:50.208Z,22.70
2023-05-23T07:59:18.175Z,29.50
2023-05-23T08:01:50.503Z,40.13
2023-05-23T08:04:19.339Z,29.87
2023-05-23T08:07:00.836Z,31.20
2023-05-23T08:09:41.230Z,31.07
2023-05-23T08:12:09.909Z,31.03
2023-05-23T08:14:49.768Z,37.33
2023-05-23T08:17:23.976Z,31.50
2023-05-23T08:19:52.060Z,33.70
2023-05-23T08:22:19.038Z,38.33
2023-05-23T08:24:46.340Z,39.83
2023-05-23T08:27:13.422Z,38.17
2023-05-23T08:29:41.429Z,38.93
2023-05-23T08:32:08.762Z,39.13
2023-05-23T08:34:35.614Z,31.00
2023-05-23T08:37:02.982Z,38.97
2023-05-23T08:39:29.986Z,32.07
2023-05-23T08:42:17.198Z,27.77
2023-05-23T08:44:44.140Z,36.87
2023-05-23T08:47:12.847Z,32.40
2023-05-23T08:49:55.345Z,35.20
2023-05-23T08:52:25.198Z,35.63
2023-05-23T08:54:54.365Z,43.23
2023-05-23T08:57:21.362Z,23.70
2023-05-23T08:59:53.771Z,36.87
2023-05-23T09:02:22.597Z,21.37
2023-05-23T09:04:53.763Z,25.63
2023-05-23T09:07:24.739Z,20.70
2023-05-23T09:09:53.064Z,15.77
2023-05-23T09:12:22.529Z,20.53
2023-05-23T09:14:51.270Z,28.67
2023-05-23T09:17:19.930Z,32.87
2023-05-23T09:19:47.654Z,21.50
2023-05-23T09:22:34.458Z,29.30
2023-05-23T09:25:07.102Z,26.53
2023-05-23T09:27:35.323Z,18.50
2023-05-23T09:30:09.395Z,20.70
2023-05-23T09:32:36.705Z,23.93
2023-05-23T09:35:05.685Z,20.03
2023-05-23T09:37:34.113Z,20.07
2023-05-23T09:40:01.601Z,28.47
2023-05-23T09:42:34.156Z,17.63
2023-05-23T09:45:03.873Z,21.70
2023-05-23T09:47:31.813Z,24.00
2023-05-23T09:49:58.977Z,15.10
2023-05-23T09:52:26.692Z,16.27
2023-05-23T09:54:54.417Z,17.17
2023-05-23T09:57:23.113Z,19.80
2023-05-23T09:59:53.338Z,22.70
2023-05-23T10:02:54.039Z,19.63
2023-05-23T10:05:36.432Z,17.47
2023-05-23T10:08:08.123Z,14.00
2023-05-23T10:10:35.600Z,19.07
2023-05-23T10:13:04.284Z,17.93
2023-05-23T10:15:35.117Z,16.40
2023-05-23T10:18:10.884Z,14.47
2023-05-23T10:20:40.239Z,18.57
2023-05-23T10:23:07.648Z,17.23
2023-05-23T10:25:37.336Z,15.10
2023-05-23T10:28:05.101Z,13.67
2023-05-23T10:30:32.251Z,13.03
2023-05-23T10:32:59.852Z,18.80
2023-05-23T10:35:30.638Z,14.97
2023-05-23T10:38:00.455Z,14.60
2023-05-23T10:40:27.457Z,14.97
2023-05-23T10:43:10.541Z,15.10
2023-05-23T10:45:44.175Z,17.07
2023-05-23T10:48:21.732Z,17.00
2023-05-23T10:51:02.646Z,16.57
2023-05-23T10:53:29.748Z,18.70
2023-05-23T10:55:57.114Z,17.00
2023-05-23T10:58:23.866Z,16.17
2023-05-23T11:00:51.721Z,12.87
2023-05-23T11:03:18.733Z,14.10
2023-05-23T11:05:53.052Z,18.90
2023-05-23T11:08:20.398Z,15.10
2023-05-23T11:10:54.862Z,18.50
2023-05-23T11:13:23.298Z,16.03
2023-05-23T11:15:50.531Z,12.57
2023-05-23T11:18:21.617Z,17.20
2023-05-23T11:20:49.707Z,15.57
2023-05-23T11:23:16.714Z,14.50
2023-05-23T11:25:45.144Z,15.03
2023-05-23T11:28:12.639Z,11.63
2023-05-23T11:30:39.858Z,12.50
2023-05-23T11:33:14.138Z,22.13
2023-05-23T11:35:41.794Z,14.40
2023-05-23T11:38:09.156Z,20.60
2023-05-23T11:40:40.558Z,19.30
2023-05-23T11:43:08.840Z,8.37
2023-05-23T11:45:36.636Z,10.40
2023-05-23T11:48:12.067Z,14.10
2023-05-23T11:50:46.372Z,12.10
2023-05-23T11:53:13.865Z,12.83
2023-05-23T11:55:41.934Z,10.87
2023-05-23T11:58:09.554Z,12.13
2023-05-23T12:00:43.124Z,14.53
2023-05-23T12:03:10.572Z,15.57
2023-05-23T12:05:37.744Z,14.33
2023-05-23T12:08:04.644Z,14.47
2023-05-23T12:10:31.872Z,9.50
2023-05-23T12:12:59.277Z,16.87
2023-05-23T12:15:29.713Z,12.33
2023-05-23T12:17:57.169Z,10.13
2023-05-23T12:20:24.444Z,8.70
2023-05-23T12:22:54.078Z,7.67
2023-05-23T12:25:23.365Z,4.63
2023-05-23T12:27:50.730Z,11.90
2023-05-23T12:30:17.900Z,4.97
2023-05-23T12:32:45.629Z,5.30
2023-05-23T12:35:13.470Z,9.50
2023-05-23T12:37:41.180Z,13.37
2023-05-23T12:40:12.381Z,11.83
2023-05-23T12:42:52.926Z,8.00
2023-05-23T12:45:23.660Z,9.80
2023-05-23T12:47:53.948Z,7.93
2023-05-23T12:50:21.358Z,11.10
2023-05-23T12:52:48.479Z,10.97
2023-05-23T12:55:15.506Z,8.10
2023-05-23T12:57:42.477Z,10.07
2023-05-23T13:00:09.892Z,9.50
2023-05-23T13:02:36.878Z,15.63
2023-05-23T13:05:03.962Z,9.77
2023-05-23T13:07:31.211Z,7.33
2023-05-23T13:09:58.104Z,11.70
2023-05-23T13:12:24.997Z,5.90
2023-05-23T13:14:52.581Z,7.33
2023-05-23T13:17:19.573Z,8.80
2023-05-23T13:19:47.298Z,11.07
2023-05-23T13:22:14.193Z,11.83
2023-05-23T13:24:43.825Z,6.97
2023-05-23T13:27:10.831Z,17.63
2023-05-23T13:29:37.720Z,15.40
2023-05-23T13:32:04.591Z,19.00
2023-05-23T13:34:31.735Z,10.10
2023-05-23T13:36:58.594Z,14.47
2023-05-23T13:39:25.480Z,9.43
2023-05-23T13:41:52.377Z,14.90
2023-05-23T13:44:19.618Z,13.73
2023-05-23T13:46:46.759Z,13.87
2023-05-23T13:49:13.869Z,12.10
2023-05-23T13:51:41.998Z,14.30
2023-05-23T13:54:08.807Z,9.43
2023-05-23T13:56:36.671Z,15.73
2023-05-23T13:59:03.662Z,8.90
2023-05-23T14:01:30.584Z,10.17
2023-05-23T14:03:57.545Z,17.57
2023-05-23T14:06:25.031Z,10.70
2023-05-23T14:08:51.935Z,10.23
2023-05-23T14:11:19.035Z,11.00
2023-05-23T14:13:46.030Z,15.17
2023-05-23T14:16:13.095Z,8.30
2023-05-23T14:18:40.035Z,8.50
2023-05-23T14:21:06.929Z,17.07
2023-05-23T14:23:33.930Z,14.03
2023-05-23T14:26:00.926Z,16.57
2023-05-23T14:28:28.289Z,112.07
2023-05-23T14:30:56.017Z,14.80
2023-05-23T14:33:22.921Z,6.10
2023-05-23T14:35:50.026Z,16.83
2023-05-23T14:38:17.493Z,14.87
2023-05-23T14:40:44.745Z,10.37
2023-05-23T14:43:12.108Z,11.53
2023-05-23T14:45:39.136Z,16.60
2023-05-23T14:48:07.005Z,15.23
2023-05-23T14:50:33.963Z,13.70
2023-05-23T14:53:01.072Z,9.37
2023-05-23T14:55:27.971Z,9.30
2023-05-23T14:57:54.836Z,12.70
2023-05-23T15:00:21.722Z,9.47
2023-05-23T15:02:48.766Z,13.03
2023-05-23T15:05:15.692Z,18.57
2023-05-23T15:07:42.548Z,16.27
2023-05-23T15:10:09.526Z,8.73
2023-05-23T15:12:36.639Z,10.90
2023-05-23T15:15:03.971Z,15.33
2023-05-23T15:17:33.672Z,7.63
2023-05-23T15:20:01.097Z,10.63
2023-05-23T15:25:00.027Z,9.60
2023-05-23T15:27:26.903Z,15.97
2023-05-23T15:29:53.919Z,9.07
2023-05-23T15:32:20.826Z,12.20
2023-05-23T15:34:47.666Z,14.30
2023-05-23T15:37:18.047Z,14.40
2023-05-23T15:39:45.046Z,9.17
2023-05-23T15:42:12.176Z,8.47
2023-05-23T15:44:39.198Z,11.47
2023-05-23T15:47:06.162Z,19.47
2023-05-23T15:49:33.158Z,11.60
2023-05-23T15:52:00.193Z,14.97
2023-05-23T15:54:27.164Z,23.40
2023-05-23T15:56:54.412Z,12.13
2023-05-23T15:59:21.534Z,17.97
2023-05-23T16:01:48.480Z,9.07
2023-05-23T16:04:15.689Z,21.87
2023-05-23T16:06:43.519Z,15.97
2023-05-23T16:09:10.384Z,14.97
2023-05-23T16:11:37.275Z,11.20
2023-05-23T16:14:04.275Z,13.30
2023-05-23T16:16:31.206Z,13.03
2023-05-23T16:18:58.204Z,15.20
2023-05-23T16:21:25.278Z,14.93
2023-05-23T16:23:52.882Z,11.83
2023-05-23T16:26:19.914Z,14.20
2023-05-23T16:28:47.127Z,14.90
2023-05-23T16:31:14.936Z,10.03
2023-05-23T16:33:43.204Z,19.60
2023-05-23T16:36:10.325Z,11.13
2023-05-23T16:38:37.548Z,16.33
2023-05-23T16:41:04.535Z,8.50
2023-05-23T16:43:31.941Z,17.17
2023-05-23T16:45:59.185Z,11.03
2023-05-23T16:48:26.165Z,18.77
2023-05-23T16:50:53.889Z,13.50
2023-05-23T16:53:21.367Z,11.50
2023-05-23T16:55:48.511Z,16.03
2023-05-23T16:58:16.625Z,17.13
2023-05-23T17:00:44.885Z,13.03
2023-05-23T17:03:11.975Z,12.13
2023-05-23T17:05:39.516Z,11.30
2023-05-23T17:08:06.853Z,11.90
2023-05-23T17:10:34.218Z,20.90
2023-05-23T17:13:01.441Z,11.00
2023-05-23T17:15:28.585Z,10.40
2023-05-23T17:17:55.730Z,17.77
2023-05-23T17:20:24.314Z,13.70
2023-05-23T17:22:55.243Z,16.57
2023-05-23T17:25:22.977Z,14.33
2023-05-23T17:27:50.105Z,16.40
2023-05-23T17:30:20.196Z,12.60
2023-05-23T17:32:47.470Z,21.57
2023-05-23T17:35:14.563Z,11.70
2023-05-23T17:37:43.661Z,15.57
2023-05-23T17:40:11.744Z,23.80
2023-05-23T17:42:42.760Z,13.13
2023-05-23T17:45:10.113Z,10.90
2023-05-23T17:47:37.281Z,12.60
2023-05-23T17:50:04.482Z,16.90
2023-05-23T17:52:31.869Z,8.97
2023-05-23T17:54:58.973Z,16.83
2023-05-23T17:57:26.099Z,14.17
2023-05-23T17:59:52.991Z,13.77
2023-05-23T18:02:19.997Z,14.17
2023-05-23T18:04:47.012Z,18.83
2023-05-23T18:07:15.063Z,12.17
2023-05-23T18:09:41.962Z,14.70
2023-05-23T18:12:09.316Z,12.40
2023-05-23T18:14:36.331Z,12.27
2023-05-23T18:17:03.701Z,12.70
2023-05-23T18:19:31.126Z,13.87
2023-05-23T18:21:58.521Z,11.17
2023-05-23T18:24:25.667Z,15.97
2023-05-23T18:26:52.519Z,11.17
2023-05-23T18:29:20.255Z,10.73
2023-05-23T18:31:47.383Z,16.10
2023-05-23T18:34:14.496Z,14.33
2023-05-23T18:36:41.505Z,15.23
2023-05-23T18:39:08.731Z,13.67
2023-05-23T18:41:35.980Z,8.33
2023-05-23T18:44:05.162Z,13.60
2023-05-23T18:46:32.262Z,28.20
2023-05-23T18:49:00.342Z,19.97
2023-05-23T18:51:27.341Z,24.73
2023-05-23T18:53:54.606Z,14.27
2023-05-23T18:56:22.080Z,16.30
2023-05-23T18:58:49.798Z,14.03
2023-05-23T19:01:16.759Z,16.07
2023-05-23T19:03:45.846Z,14.60
2023-05-23T19:06:13.207Z,19.70
2023-05-23T19:08:41.163Z,19.20
2023-05-23T19:11:08.323Z,10.17
2023-05-23T19:13:35.926Z,13.30
2023-05-23T19:16:03.881Z,9.37
2023-05-23T19:18:31.809Z,15.00
2023-05-23T19:20:58.687Z,16.17
2023-05-23T19:23:25.713Z,21.83
2023-05-23T19:25:52.815Z,14.83
2023-05-23T19:28:19.814Z,16.83
2023-05-23T19:30:46.979Z,24.67
2023-05-23T19:33:14.732Z,17.60
2023-05-23T19:35:41.915Z,19.60
2023-05-23T19:38:10.128Z,16.20
2023-05-23T19:40:37.109Z,20.00
2023-05-23T19:43:04.119Z,20.43
2023-05-23T19:45:31.717Z,13.80
2023-05-23T19:47:58.677Z,5.00
2023-05-23T19:50:25.623Z,13.30
2023-05-23T19:52:52.773Z,25.00
2023-05-23T19:55:19.852Z,17.23
2023-05-23T19:57:46.990Z,20.23
2023-05-23T20:00:14.958Z,14.03
2023-05-23T20:02:42.487Z,13.57
2023-05-23T20:05:09.893Z,19.43
2023-05-23T20:07:37.143Z,15.50
2023-05-23T20:10:04.328Z,16.17
2023-05-23T20:12:31.751Z,17.73
2023-05-23T20:14:58.786Z,14.50
2023-05-23T20:17:25.810Z,16.93
2023-05-23T20:19:52.643Z,14.30
2023-05-23T20:22:19.523Z,20.07
2023-05-23T20:24:46.922Z,19.00
2023-05-23T20:27:14.020Z,13.93
2023-05-23T20:29:40.911Z,14.43
2023-05-23T20:32:07.771Z,20.73
2023-05-23T20:34:34.774Z,21.33
2023-05-23T20:37:01.667Z,13.93
2023-05-23T20:39:29.977Z,23.93
2023-05-23T20:41:57.219Z,16.13
2023-05-23T20:44:25.296Z,19.80
2023-05-23T20:46:52.206Z,15.27
2023-05-23T20:49:19.188Z,21.20
2023-05-23T20:51:46.060Z,13.10
2023-05-23T20:54:12.939Z,19.60
2023-05-23T20:56:39.835Z,16.83
2023-05-23T20:59:06.727Z,17.00
2023-05-23T21:01:33.627Z,14.90
2023-05-23T21:04:00.954Z,13.30
2023-05-23T21:06:27.961Z,15.30
2023-05-23T21:08:55.203Z,21.77
2023-05-23T21:11:23.155Z,16.03
2023-05-23T21:13:50.159Z,20.57
2023-05-23T21:16:17.062Z,13.27
2023-05-23T21:18:44.060Z,23.50
2023-05-23T21:21:10.955Z,23.67
2023-05-23T21:23:38.056Z,12.70
2023-05-23T21:26:04.948Z,18.80
2023-05-23T21:28:31.834Z,15.03
2023-05-23T21:30:59.320Z,13.63
2023-05-23T21:33:26.188Z,18.10
2023-05-23T21:35:53.188Z,35.17
2023-05-23T21:38:20.081Z,17.40
2023-05-23T21:40:47.072Z,19.10
2023-05-23T21:43:13.952Z,13.43
2023-05-23T21:45:40.831Z,21.93
2023-05-23T21:48:07.772Z,19.07
2023-05-23T21:50:34.612Z,23.73
2023-05-23T21:53:01.492Z,16.97
2023-05-23T21:55:28.752Z,14.10
2023-05-23T21:57:55.769Z,13.77
2023-05-23T22:00:22.842Z,22.60
2023-05-23T22:02:49.935Z,10.40
2023-05-23T22:05:17.228Z,22.20
2023-05-23T22:07:43.944Z,16.93
2023-05-23T22:10:11.120Z,9.83
2023-05-23T22:12:37.801Z,10.73
2023-05-23T22:15:04.901Z,15.10
2023-05-23T22:17:34.289Z,18.00
2023-05-23T22:20:02.377Z,16.40
2023-05-23T22:22:28.971Z,14.60
2023-05-23T22:24:55.455Z,13.63
2023-05-23T22:27:22.055Z,16.83
2023-05-23T22:29:48.694Z,19.07
2023-05-23T22:32:15.375Z,17.37
2023-05-23T22:34:41.972Z,19.60
2023-05-23T22:37:08.940Z,15.17
2023-05-23T22:39:35.519Z,13.83
2023-05-23T22:42:03.281Z,22.63
2023-05-23T22:44:29.796Z,29.17
2023-05-23T22:46:58.143Z,14.90
2023-05-23T22:49:26.207Z,23.87
2023-05-23T22:51:52.919Z,14.67
2023-05-23T22:54:19.415Z,17.33
2023-05-23T22:56:46.082Z,15.97
2023-05-23T22:59:12.667Z,14.93
2023-05-23T23:01:39.310Z,22.23
2023-05-23T23:04:05.894Z,28.47
2023-05-23T23:06:33.928Z,20.73
2023-05-23T23:09:00.527Z,25.60
2023-05-23T23:11:27.096Z,14.13
2023-05-23T23:13:53.711Z,14.73
2023-05-23T23:16:21.162Z,16.27
2023-05-23T23:18:47.809Z,14.60
2023-05-23T23:21:14.335Z,30.73
2023-05-23T23:23:40.918Z,11.43
2023-05-23T23:26:07.618Z,11.13
2023-05-23T23:28:34.175Z,21.73
2023-05-23T23:31:01.233Z,20.13
2023-05-23T23:33:27.854Z,22.40
2023-05-23T23:35:54.432Z,26.33
2023-05-23T23:38:21.068Z,18.73
2023-05-23T23:40:48.713Z,21.80
2023-05-23T23:43:15.272Z,15.40
2023-05-23T23:45:42.011Z,19.83
2023-05-23T23:48:08.557Z,17.07
2023-05-23T23:50:35.196Z,36.27
2023-05-23T23:53:01.956Z,33.53
2023-05-23T23:55:28.529Z,19.17
2023-05-23T23:57:55.122Z,12.40
